Time;durP1;ratioP1;P1;durP2;ratioP2;P2;SDS_P1;SDS_P2;PMS_P1;PMS_P2;Temp;Humidity;BMP_temperature;BMP_pressure;BME280_temperature;BME280_humidity;BME280_pressure;Samples;Min_cycle;Max_cycle;Signal;HPM_P1;HPM_P2
2022/09/23 00:01:52;;;;;;;25.50;18.08;;;;;;;8.92;99.81;100769.88;5069041;28;20468;-64
2022/09/23 00:04:18;;;;;;;23.48;16.67;;;;;;;8.91;99.47;100784.22;5065251;28;20411;-64
2022/09/23 00:06:44;;;;;;;25.05;17.33;;;;;;;8.96;99.73;100796.28;5062720;28;20024;-64
2022/09/23 00:09:09;;;;;;;25.00;16.95;;;;;;;8.85;99.99;100779.31;5072597;28;20034;-64
2022/09/23 00:11:35;;;;;;;23.92;15.80;;;;;;;8.90;100.00;100794.06;5071393;28;20414;-64
2022/09/23 00:14:00;;;;;;;25.17;16.52;;;;;;;8.94;99.13;100803.53;5084718;28;20020;-64
2022/09/23 00:16:29;;;;;;;23.33;16.70;;;;;;;8.90;98.48;100795.88;5065241;28;20032;-64
2022/09/23 00:18:54;;;;;;;20.65;14.77;;;;;;;8.88;97.72;100797.81;5064410;28;20036;-64
2022/09/23 00:21:21;;;;;;;25.48;16.38;;;;;;;8.86;97.78;100792.56;5071930;28;20472;-65
2022/09/23 00:23:47;;;;;;;24.48;16.17;;;;;;;8.80;98.19;100790.34;5073274;28;20126;-66
2022/09/23 00:26:15;;;;;;;21.10;15.73;;;;;;;8.83;98.33;100789.25;5064510;28;20051;-66
2022/09/23 00:28:41;;;;;;;21.52;16.27;;;;;;;8.81;98.74;100799.22;5065049;28;20081;-66
2022/09/23 00:31:12;;;;;;;26.95;18.08;;;;;;;8.84;99.77;100801.69;5051465;28;20056;-66
2022/09/23 00:33:39;;;;;;;25.85;18.85;;;;;;;8.80;100.00;100790.34;5069585;28;20079;-66
2022/09/23 00:36:07;;;;;;;26.83;18.85;;;;;;;8.78;100.00;100783.41;5074810;28;20547;-66
2022/09/23 00:38:33;;;;;;;27.17;18.17;;;;;;;8.79;100.00;100787.78;5072002;28;20054;-66
2022/09/23 00:40:59;;;;;;;25.20;17.67;;;;;;;8.79;100.00;100791.31;5084599;28;20040;-66
2022/09/23 00:43:44;;;;;;;25.92;17.17;;;;;;;8.78;100.00;100784.25;5082111;28;20027;-66
2022/09/23 00:46:15;;;;;;;24.58;16.42;;;;;;;8.78;100.00;100784.25;5078258;28;20032;-66
2022/09/23 00:48:42;;;;;;;25.98;17.15;;;;;;;8.74;100.00;100776.59;5070879;28;20107;-66
2022/09/23 00:51:13;;;;;;;25.40;17.70;;;;;;;8.78;100.00;100789.59;5076320;28;20021;-66
2022/09/23 00:53:39;;;;;;;26.73;18.05;;;;;;;8.77;100.00;100790.56;5084980;28;20460;-67
2022/09/23 00:56:07;;;;;;;26.13;17.45;;;;;;;8.82;100.00;100787.56;5084693;28;20430;-66
2022/09/23 00:58:36;;;;;;;21.17;15.07;;;;;;;8.83;100.00;100795.47;5070330;28;20472;-66
2022/09/23 01:01:02;;;;;;;18.50;13.85;;;;;;;8.86;100.00;100800.59;5069111;28;20036;-66
2022/09/23 01:03:28;;;;;;;18.10;14.63;;;;;;;8.80;100.00;100795.69;5077973;28;20040;-67
2022/09/23 01:05:55;;;;;;;21.55;15.75;;;;;;;8.81;100.00;100797.38;5066724;28;20387;-66
2022/09/23 01:08:22;;;;;;;19.58;15.10;;;;;;;8.82;100.00;100796.44;5074950;28;20056;-66
2022/09/23 01:11:13;;;;;;;20.08;14.45;;;;;;;8.88;100.00;100801.34;5064228;28;20485;-66
2022/09/23 01:13:57;;;;;;;20.60;13.85;;;;;;;8.75;100.00;100775.59;5053686;28;20032;-66
2022/09/23 01:16:46;;;;;;;17.05;13.35;;;;;;;8.84;100.00;100794.50;5062744;28;20028;-66
2022/09/23 01:19:34;;;;;;;17.48;13.60;;;;;;;8.84;100.00;100788.31;5066886;28;20115;-66
2022/09/23 01:22:21;;;;;;;17.88;13.90;;;;;;;8.82;100.00;100780.41;5069476;28;20500;-66
2022/09/23 01:24:58;;;;;;;17.90;13.63;;;;;;;8.82;100.00;100783.06;5064062;28;20037;-66
2022/09/23 01:27:46;;;;;;;15.70;13.43;;;;;;;8.77;100.00;100779.88;5064082;28;20524;-66
2022/09/23 01:30:31;;;;;;;18.50;13.63;;;;;;;8.82;100.00;100782.22;5063557;28;20372;-66
2022/09/23 01:33:07;;;;;;;16.95;12.98;;;;;;;8.88;100.00;100787.13;5076320;28;20055;-66
2022/09/23 01:35:34;;;;;;;18.63;14.13;;;;;;;8.89;100.00;100778.09;5068655;28;20028;-66
2022/09/23 01:38:14;;;;;;;17.67;13.57;;;;;;;8.90;100.00;100777.16;5083200;28;20071;-66
2022/09/23 01:40:58;;;;;;;19.80;13.65;;;;;;;8.87;100.00;100778.22;5078151;28;20024;-66
2022/09/23 01:43:30;;;;;;;18.67;14.18;;;;;;;8.85;100.00;100769.47;5087965;28;20065;-64
2022/09/23 01:45:58;;;;;;;20.15;14.70;;;;;;;8.78;100.00;100764.69;5080288;28;20040;-64
2022/09/23 01:48:59;;;;;;;15.85;12.68;;;;;;;8.82;100.00;100771.50;5075950;28;20070;-64
2022/09/23 01:51:36;;;;;;;17.67;13.05;;;;;;;8.80;100.00;100776.09;5079764;28;20336;-64
2022/09/23 01:54:34;;;;;;;15.73;12.77;;;;;;;8.75;100.00;100772.94;5085294;28;20483;-64
2022/09/23 01:57:11;;;;;;;17.17;12.88;;;;;;;8.73;100.00;100777.53;5070983;28;20039;-64
2022/09/23 01:59:40;;;;;;;15.52;12.93;;;;;;;8.71;100.00;100772.28;5081646;28;20434;-65
2022/09/23 02:02:14;;;;;;;16.58;12.55;;;;;;;8.69;100.00;100765.34;5087121;28;20028;-64
2022/09/23 02:05:13;;;;;;;15.55;13.23;;;;;;;8.63;100.00;100761.31;5084325;28;20094;-64
2022/09/23 02:07:48;;;;;;;18.08;12.90;;;;;;;8.64;100.00;100762.19;5064791;28;20457;-64
2022/09/23 02:10:27;;;;;;;14.90;12.52;;;;;;;8.60;100.00;100761.53;5081734;28;20086;-64
2022/09/23 02:13:00;;;;;;;19.63;13.57;;;;;;;8.58;100.00;100759.94;5079704;28;20075;-64
2022/09/23 02:15:34;;;;;;;16.52;12.85;;;;;;;8.59;100.00;100758.97;5048723;28;20086;-64
2022/09/23 02:18:12;;;;;;;16.00;12.32;;;;;;;8.52;100.00;100758.53;5067393;28;20115;-64
2022/09/23 02:20:41;;;;;;;16.75;12.75;;;;;;;8.53;100.00;100770.97;5085452;28;20033;-64
2022/09/23 02:23:26;;;;;;;17.30;12.73;;;;;;;8.52;100.00;100766.56;5082088;28;20035;-64
2022/09/23 02:26:10;;;;;;;17.33;13.52;;;;;;;8.52;100.00;100766.56;5083974;28;20044;-65
2022/09/23 02:28:55;;;;;;;17.50;12.65;;;;;;;8.49;100.00;100758.78;5080808;28;20038;-64
2022/09/23 02:31:26;;;;;;;;;;;;;;;8.47;100.00;100765.19;5079423;28;20036;-64
2022/09/23 02:34:27;;;;;;;13.45;10.88;;;;;;;8.45;100.00;100765.31;5085224;28;20295;-67
2022/09/23 02:36:55;;;;;;;15.27;10.23;;;;;;;8.43;100.00;100769.91;5042258;28;20024;-67
2022/09/23 02:39:24;;;;;;;14.85;11.25;;;;;;;8.38;100.00;100757.81;5072823;28;20055;-67
2022/09/23 02:42:09;;;;;;;16.00;11.75;;;;;;;8.39;100.00;100767.56;5080603;28;20028;-67
2022/09/23 02:44:35;;;;;;;19.85;11.60;;;;;;;8.37;100.00;100767.69;5068320;28;20089;-67
2022/09/23 02:47:01;;;;;;;13.63;11.20;;;;;;;8.34;100.00;100767.03;5067183;28;20040;-66
2022/09/23 02:49:30;;;;;;;15.18;11.52;;;;;;;8.34;100.00;100767.03;5066877;28;20687;-67
2022/09/23 02:52:02;;;;;;;13.48;11.00;;;;;;;8.30;100.00;100762.88;5067195;28;20035;-66
2022/09/23 02:54:28;;;;;;;15.50;9.98;;;;;;;8.25;100.00;100765.88;5049268;28;20036;-67
2022/09/23 02:56:54;;;;;;;15.48;11.02;;;;;;;8.33;100.00;100768.88;5072535;28;20032;-67
2022/09/23 02:59:22;;;;;;;15.75;11.43;;;;;;;8.22;100.00;100751.91;5051704;28;20128;-67
2022/09/23 03:02:12;;;;;;;15.23;11.32;;;;;;;8.33;100.00;100768.00;5069660;28;20021;-66
2022/09/23 03:04:57;;;;;;;15.15;10.80;;;;;;;8.35;100.00;100771.44;5065187;28;20102;-66
2022/09/23 03:07:31;;;;;;;;;;;;;;;8.34;100.00;100764.38;5076730;28;20020;-66
2022/09/23 03:10:21;;;;;;;17.52;12.10;;;;;;;8.38;100.00;100772.06;5070247;28;20296;-68
2022/09/23 03:12:59;;;;;;;15.80;11.88;;;;;;;8.43;100.00;100769.06;5065572;28;20035;-67
2022/09/23 03:15:43;;;;;;;17.90;13.20;;;;;;;8.47;100.00;100778.56;5079279;28;20055;-67
2022/09/23 03:18:17;;;;;;;18.23;13.05;;;;;;;8.49;100.00;100776.63;5049425;28;20094;-67
2022/09/23 03:20:51;;;;;;;19.60;13.90;;;;;;;8.42;100.00;100759.34;5066240;28;20028;-66
2022/09/23 03:23:19;;;;;;;;;;;;;;;8.47;100.00;100771.41;5074892;28;20489;-66
2022/09/23 03:25:47;;;;;;;21.77;13.55;;;;;;;8.46;100.00;100766.16;5086883;28;19919;-66
2022/09/23 03:28:16;;;;;;;16.23;12.85;;;;;;;8.44;100.00;100774.28;5073873;28;20089;-65
2022/09/23 03:30:42;;;;;;;17.02;12.90;;;;;;;8.38;100.00;100766.72;5047678;28;20035;-65
2022/09/23 03:33:11;;;;;;;17.85;13.32;;;;;;;8.42;100.00;100770.03;5071098;28;20059;-66
2022/09/23 03:38:33;;;;;;;16.25;11.98;;;;;;;8.38;100.00;100768.53;5072615;28;20038;-66
2022/09/23 03:41:03;;;;;;;17.58;11.45;;;;;;;8.34;100.00;100769.72;5086303;28;20032;-65
2022/09/23 03:43:29;;;;;;;17.50;13.07;;;;;;;8.33;100.00;100765.34;5083196;28;20030;-65
2022/09/23 03:45:56;;;;;;;22.52;14.20;;;;;;;8.32;100.00;100769.81;5082065;28;20113;-66
2022/09/23 03:48:23;;;;;;;19.88;13.98;;;;;;;8.34;100.00;100769.72;5073774;28;20028;-68
2022/09/23 03:50:48;;;;;;;24.45;15.15;;;;;;;8.31;100.00;100761.91;5074299;28;20024;-67
2022/09/23 03:53:14;;;;;;;21.55;14.52;;;;;;;8.34;100.00;100767.91;5081183;28;20074;-67
2022/09/23 03:55:39;;;;;;;19.55;14.15;;;;;;;8.34;100.00;100765.22;5080399;28;20027;-67
2022/09/23 03:58:06;;;;;;;18.80;13.05;;;;;;;8.33;100.00;100776.03;5078890;28;20512;-67
2022/09/23 04:00:34;;;;;;;21.40;14.20;;;;;;;8.31;100.00;100765.44;5073169;28;20107;-67
2022/09/23 04:03:00;;;;;;;18.77;12.73;;;;;;;8.30;100.00;100770.91;5054756;28;20036;-67
2022/09/23 04:05:26;;;;;;;19.90;13.75;;;;;;;8.27;100.00;100768.44;5055123;28;20036;-67
2022/09/23 04:07:51;;;;;;;21.10;13.07;;;;;;;8.25;100.00;100771.22;5078578;28;20440;-68
2022/09/23 04:10:17;;;;;;;18.08;12.88;;;;;;;8.23;100.00;100767.81;5077931;28;20101;-68
2022/09/23 04:12:42;;;;;;;16.55;12.98;;;;;;;8.13;100.00;100755.19;5082883;28;20071;-67
2022/09/23 04:15:08;;;;;;;15.55;12.45;;;;;;;8.17;100.00;100776.25;5081764;28;20081;-65
2022/09/23 04:17:34;;;;;;;17.35;11.88;;;;;;;8.15;100.00;100775.47;5070173;28;20034;-66
2022/09/23 04:19:59;;;;;;;18.80;12.55;;;;;;;8.12;100.00;100774.81;5085015;28;20028;-65
2022/09/23 04:22:25;;;;;;;17.48;13.23;;;;;;;8.11;100.00;100784.69;5078157;28;20091;-65
2022/09/23 04:24:50;;;;;;;17.73;13.05;;;;;;;8.04;100.00;100777.19;5043308;28;20063;-65
2022/09/23 04:27:16;;;;;;;18.15;13.60;;;;;;;8.03;100.00;100783.50;5061920;28;20029;-67
2022/09/23 04:29:41;;;;;;;17.98;13.32;;;;;;;7.98;100.00;100782.97;5046793;28;20431;-67
2022/09/23 04:32:07;;;;;;;18.52;13.60;;;;;;;7.87;100.00;100781.03;5063335;28;20032;-66
2022/09/23 04:34:32;;;;;;;15.90;12.63;;;;;;;7.95;100.00;100791.19;5079172;28;20044;-65
2022/09/23 04:36:58;;;;;;;18.48;13.30;;;;;;;7.91;100.00;100792.38;5082821;28;20368;-65
2022/09/23 04:39:23;;;;;;;19.05;13.45;;;;;;;7.89;100.00;100796.94;5070184;28;20070;-64
2022/09/23 04:41:48;;;;;;;20.83;14.57;;;;;;;7.79;100.00;100780.72;5072470;28;20032;-64
2022/09/23 04:44:14;;;;;;;19.20;13.93;;;;;;;7.85;100.00;100798.13;5073779;28;20044;-64
2022/09/23 04:46:41;;;;;;;19.52;14.00;;;;;;;7.87;100.00;100797.06;5064989;28;20028;-64
2022/09/23 04:49:07;;;;;;;21.67;13.88;;;;;;;7.84;100.00;100791.09;5080339;28;20024;-65
2022/09/23 04:51:32;;;;;;;21.08;14.32;;;;;;;7.80;100.00;100789.59;5084962;28;20028;-65
2022/09/23 04:53:58;;;;;;;19.00;14.10;;;;;;;7.79;100.00;100793.22;5065460;28;20474;-65
2022/09/23 04:56:28;;;;;;;24.35;15.48;;;;;;;7.71;100.00;100774.22;5046276;28;20650;-66
2022/09/23 04:58:55;;;;;;;26.42;14.95;;;;;;;7.82;100.00;100793.00;5069387;28;20059;-66
2022/09/23 05:01:25;;;;;;;28.00;15.05;;;;;;;7.84;100.00;100793.75;5073060;28;20050;-67
2022/09/23 05:04:04;;;;;;;23.42;16.13;;;;;;;7.85;100.00;100792.78;5072698;28;20028;-68
2022/09/23 05:06:31;;;;;;;28.02;18.77;;;;;;;7.91;100.00;100795.03;5063763;28;20040;-68
2022/09/23 05:08:58;;;;;;;33.15;19.65;;;;;;;7.90;100.00;100790.66;5076555;28;20039;-67
2022/09/23 05:11:24;;;;;;;32.40;19.13;;;;;;;7.98;100.00;100796.31;5064790;28;20020;-67
2022/09/23 05:13:52;;;;;;;30.23;20.00;;;;;;;8.02;100.00;100811.16;5060935;28;20036;-65
2022/09/23 05:16:19;;;;;;;42.47;21.73;;;;;;;8.03;100.00;100803.03;5068013;28;20092;-65
2022/09/23 05:18:45;;;;;;;37.30;24.52;;;;;;;8.05;100.00;100810.94;5076419;28;20059;-65
2022/09/23 05:21:13;;;;;;;41.70;23.92;;;;;;;8.07;100.00;100814.38;5084020;28;20153;-65
2022/09/23 05:23:39;;;;;;;35.80;22.40;;;;;;;8.11;100.00;100810.53;5076058;28;20483;-66
2022/09/23 05:26:10;;;;;;;36.00;23.08;;;;;;;8.18;100.00;100814.47;5073671;28;20036;-68
2022/09/23 05:28:38;;;;;;;35.10;22.15;;;;;;;8.16;100.00;100803.91;5073857;28;20037;-67
2022/09/23 05:31:07;;;;;;;26.20;18.17;;;;;;;8.26;100.00;100812.16;5068955;28;20032;-67
2022/09/23 05:33:35;;;;;;;28.13;16.65;;;;;;;8.28;100.00;100815.56;5081592;28;20076;-67
2022/09/23 05:36:02;;;;;;;31.35;18.88;;;;;;;8.27;100.00;100812.06;5073659;28;20502;-68
2022/09/23 05:38:28;;;;;;;26.40;17.52;;;;;;;8.35;100.00;100816.88;5068560;28;20028;-68
2022/09/23 05:40:58;;;;;;;26.02;17.70;;;;;;;8.37;100.00;100813.13;5075558;28;20032;-65
2022/09/23 05:43:24;;;;;;;33.92;19.13;;;;;;;8.48;100.00;100818.53;5067871;28;20063;-66
2022/09/23 05:45:51;;;;;;;29.65;18.90;;;;;;;8.50;100.00;100818.44;5067827;28;20532;-66
2022/09/23 05:48:17;;;;;;;27.23;18.83;;;;;;;8.52;100.00;100824.53;5086433;28;20384;-65
2022/09/23 05:50:50;;;;;;;31.20;20.15;;;;;;;8.54;100.00;100827.94;5085950;28;20032;-66
2022/09/23 05:53:15;;;;;;;26.42;18.25;;;;;;;8.58;100.00;100829.44;5051267;28;20078;-65
2022/09/23 05:55:40;;;;;;;26.85;18.73;;;;;;;8.62;100.00;100828.25;5079043;28;20036;-65
2022/09/23 05:58:06;;;;;;;30.95;18.90;;;;;;;8.67;100.00;100834.13;5079864;28;20035;-65
2022/09/23 06:00:31;;;;;;;27.60;17.25;;;;;;;8.69;100.00;100830.41;5087106;28;20055;-64
2022/09/23 06:02:57;;;;;;;27.17;18.27;;;;;;;8.78;100.00;100815.50;5079943;28;20024;-64
2022/09/23 06:05:22;;;;;;;25.95;17.45;;;;;;;8.79;100.00;100820.75;5067115;28;20024;-65
2022/09/23 06:07:47;;;;;;;27.23;17.70;;;;;;;8.87;100.00;100820.19;5067381;28;20090;-65
2022/09/23 06:10:13;;;;;;;23.60;16.33;;;;;;;8.94;100.00;100824.13;5075283;28;20025;-64
2022/09/23 06:12:38;;;;;;;24.27;15.95;;;;;;;9.06;100.00;100820.53;5069506;28;20081;-66
2022/09/23 06:15:05;;;;;;;24.75;16.70;;;;;;;9.18;100.00;100824.97;5049266;28;20090;-64
2022/09/23 06:17:30;;;;;;;28.88;16.58;;;;;;;9.32;100.00;100829.31;5049041;28;20034;-65
2022/09/23 06:19:56;;;;;;;21.50;15.65;;;;;;;9.45;100.00;100833.66;5047777;28;20495;-65
2022/09/23 06:22:23;;;;;;;24.00;15.70;;;;;;;9.49;100.00;100826.22;5067138;28;20024;-65
2022/09/23 06:24:49;;;;;;;23.63;16.25;;;;;;;9.66;100.00;100834.69;5048972;28;20557;-65
2022/09/23 06:27:14;;;;;;;21.45;16.40;;;;;;;9.83;100.00;100838.78;5066634;28;20032;-65
2022/09/23 06:29:40;;;;;;;24.30;17.55;;;;;;;9.89;100.00;100835.59;5076930;28;20028;-65
2022/09/23 06:32:05;;;;;;;24.00;18.02;;;;;;;10.07;100.00;100839.59;5086462;28;20034;-65
2022/09/23 06:34:31;;;;;;;24.48;17.17;;;;;;;10.22;100.00;100838.41;5086260;28;20048;-65
2022/09/23 06:36:56;;;;;;;25.25;17.30;;;;;;;10.39;100.00;100848.66;5066903;28;20048;-67
2022/09/23 06:39:22;;;;;;;20.02;13.20;;;;;;;10.54;98.42;100844.75;5078411;28;20454;-66
2022/09/23 06:41:47;;;;;;;18.55;12.95;;;;;;;10.63;97.17;100852.94;5081691;28;20020;-66
2022/09/23 06:44:13;;;;;;;19.02;14.05;;;;;;;10.70;97.00;100848.78;5074572;28;20044;-67
2022/09/23 06:46:39;;;;;;;21.50;14.18;;;;;;;10.84;95.49;100847.69;5080702;28;20027;-64
2022/09/23 06:49:04;;;;;;;19.90;14.60;;;;;;;10.97;95.39;100843.88;5061970;28;20050;-64
2022/09/23 06:51:30;;;;;;;17.58;12.93;;;;;;;11.18;94.11;100857.38;5067003;28;20028;-64
2022/09/23 06:53:55;;;;;;;18.05;13.05;;;;;;;11.32;92.71;100844.53;5067546;28;20064;-64
2022/09/23 06:56:21;;;;;;;17.67;13.05;;;;;;;11.41;93.39;100837.53;5079344;28;20039;-65
2022/09/23 06:58:47;;;;;;;19.02;12.93;;;;;;;11.67;90.79;100848.84;5068785;28;20084;-65
2022/09/23 07:01:15;;;;;;;18.77;13.00;;;;;;;11.82;91.25;100845.72;5069009;28;20491;-66
2022/09/23 07:03:41;;;;;;;18.33;13.35;;;;;;;12.00;90.28;100854.06;5083007;28;20032;-65
2022/09/23 07:06:07;;;;;;;16.92;12.50;;;;;;;12.16;89.33;100846.38;5084193;28;20032;-65
2022/09/23 07:08:33;;;;;;;18.85;12.18;;;;;;;12.29;88.63;100847.84;5068737;28;20043;-65
2022/09/23 07:11:02;;;;;;;21.42;13.75;;;;;;;12.43;89.73;100841.28;5087179;28;20024;-65
2022/09/23 07:13:29;;;;;;;16.95;12.23;;;;;;;12.75;89.90;100853.63;5085044;28;20483;-64
2022/09/23 07:15:57;;;;;;;17.30;12.90;;;;;;;13.03;86.09;100852.06;5066674;28;20047;-64
2022/09/23 07:18:24;;;;;;;18.15;13.82;;;;;;;13.22;85.67;100842.19;5080196;28;20032;-65
2022/09/23 07:20:53;;;;;;;15.77;12.52;;;;;;;13.56;83.97;100843.53;5086960;28;20028;-65
2022/09/23 07:23:19;;;;;;;20.10;13.40;;;;;;;13.83;81.23;100844.66;5068429;28;20032;-64
2022/09/23 07:25:50;;;;;;;19.33;12.60;;;;;;;14.15;77.92;100837.09;5066745;28;20063;-65
2022/09/23 07:28:16;;;;;;;17.80;11.75;;;;;;;14.45;75.58;100843.13;5066306;28;20127;-64
2022/09/23 07:30:43;;;;;;;14.23;10.35;;;;;;;14.73;74.79;100835.94;5076920;28;20028;-64
2022/09/23 07:33:09;;;;;;;11.20;7.97;;;;;;;14.96;73.51;100837.28;5060782;28;20051;-65
2022/09/23 07:35:39;;;;;;;10.02;8.05;;;;;;;15.33;70.73;100833.50;5075256;28;20118;-65
2022/09/23 07:38:05;;;;;;;11.82;7.13;;;;;;;15.79;67.98;100843.28;5083229;28;20532;-65
2022/09/23 07:40:30;;;;;;;8.77;6.65;;;;;;;16.39;65.27;100841.56;5074071;28;20067;-65
2022/09/23 07:42:56;;;;;;;14.60;6.50;;;;;;;16.90;63.68;100833.41;5087303;28;20537;-65
2022/09/23 07:45:22;;;;;;;5.95;5.10;;;;;;;17.51;59.06;100834.81;5083396;28;20051;-65
2022/09/23 07:47:48;;;;;;;6.75;5.35;;;;;;;18.19;56.98;100832.69;5083913;28;20042;-65
2022/09/23 07:50:14;;;;;;;6.72;4.75;;;;;;;19.00;53.96;100822.47;5086342;28;20032;-65
2022/09/23 07:52:39;;;;;;;5.70;4.78;;;;;;;19.98;51.54;100814.41;5082911;28;20036;-65
2022/09/23 07:55:05;;;;;;;5.53;4.60;;;;;;;20.91;48.59;100821.13;5068183;28;20119;-66
2022/09/23 07:57:31;;;;;;;5.63;4.30;;;;;;;21.98;45.71;100814.69;5086118;28;20484;-68
2022/09/23 07:59:57;;;;;;;5.85;4.70;;;;;;;22.60;44.64;100814.78;5086601;28;20139;-68
2022/09/23 08:02:23;;;;;;;6.13;5.25;;;;;;;23.28;42.49;100812.03;5083997;28;20052;-68
2022/09/23 08:04:48;;;;;;;7.70;5.30;;;;;;;23.78;41.86;100819.78;5068446;28;20027;-68
2022/09/23 08:07:14;;;;;;;6.55;5.82;;;;;;;24.31;40.38;100810.56;5086521;28;20089;-68
2022/09/23 08:09:42;;;;;;;7.68;5.45;;;;;;;24.70;39.73;100817.97;5056339;28;20112;-67
2022/09/23 08:12:15;;;;;;;6.45;5.55;;;;;;;25.10;38.70;100808.56;5067996;28;20035;-67
2022/09/23 08:14:41;;;;;;;6.32;5.40;;;;;;;24.97;39.47;100807.75;5062498;28;20632;-67
2022/09/23 08:17:06;;;;;;;5.65;5.07;;;;;;;25.25;38.67;100811.03;5065933;28;20036;-67
2022/09/23 08:19:32;;;;;;;6.18;4.72;;;;;;;25.31;38.09;100810.19;5065359;28;20028;-67
2022/09/23 08:21:57;;;;;;;5.40;4.85;;;;;;;25.20;38.16;100806.19;5065946;28;20048;-67
2022/09/23 08:24:25;;;;;;;4.88;4.15;;;;;;;25.08;38.36;100810.66;5054152;28;20024;-67
2022/09/23 08:26:52;;;;;;;8.60;4.57;;;;;;;24.73;38.87;100811.19;5068553;28;20032;-67
2022/09/23 08:29:22;;;;;;;6.10;5.07;;;;;;;24.54;39.34;100803.81;5058036;28;20466;-67
2022/09/23 08:31:48;;;;;;;5.80;5.18;;;;;;;23.82;40.85;100807.34;5085515;28;20095;-66
2022/09/23 08:34:20;;;;;;;9.02;5.07;;;;;;;23.02;41.85;100806.41;5085445;28;20051;-67
2022/09/23 08:36:46;;;;;;;5.65;5.03;;;;;;;22.32;43.21;100805.75;5067346;28;20110;-66
2022/09/23 08:39:16;;;;;;;5.40;4.75;;;;;;;21.51;45.10;100819.84;5065703;28;20115;-66
2022/09/23 08:42:11;;;;;;;6.47;5.07;;;;;;;20.91;47.02;100816.53;5065641;28;20357;-67
2022/09/23 08:44:42;;;;;;;7.07;4.38;;;;;;;20.48;48.35;100819.25;5078187;28;20031;-65
2022/09/23 08:47:16;;;;;;;4.40;4.00;;;;;;;20.11;49.32;100810.06;5071099;28;20032;-65
2022/09/23 08:49:54;;;;;;;4.72;4.30;;;;;;;19.78;50.18;100803.19;5074993;28;20031;-65
2022/09/23 08:52:30;;;;;;;7.75;4.82;;;;;;;19.92;49.98;100807.81;5069526;28;20031;-64
2022/09/23 08:54:56;;;;;;;6.47;4.82;;;;;;;19.70;50.54;100800.50;5075754;28;20040;-64
2022/09/23 08:57:59;;;;;;;5.63;4.78;;;;;;;19.45;51.41;100800.84;5080856;28;20036;-67
2022/09/23 09:00:33;;;;;;;5.38;4.85;;;;;;;19.29;52.38;100809.97;5072804;28;20059;-65
2022/09/23 09:02:59;;;;;;;6.45;5.38;;;;;;;19.26;52.11;100804.88;5071435;28;20051;-66
2022/09/23 09:05:27;;;;;;;6.47;4.53;;;;;;;19.10;52.51;100801.38;5089019;28;20559;-65
2022/09/23 09:07:56;;;;;;;8.82;5.00;;;;;;;18.97;53.40;100798.38;5071102;28;20396;-66
2022/09/23 09:10:28;;;;;;;5.18;4.68;;;;;;;18.95;52.80;100789.53;5069322;28;20062;-66
2022/09/23 09:13:08;;;;;;;7.22;4.55;;;;;;;18.90;53.46;100805.53;5068901;28;20120;-66
2022/09/23 09:15:51;;;;;;;4.82;4.10;;;;;;;18.87;52.70;100809.47;5068689;28;20047;-65
2022/09/23 09:18:18;;;;;;;4.47;4.05;;;;;;;18.75;53.46;100801.84;5068629;28;20032;-67
2022/09/23 09:21:10;;;;;;;4.32;3.75;;;;;;;18.77;54.02;100810.69;5068627;28;20048;-67
2022/09/23 09:23:53;;;;;;;5.88;4.07;;;;;;;18.77;53.68;100811.50;5060474;28;20039;-67
2022/09/23 09:26:27;;;;;;;7.87;4.40;;;;;;;18.71;53.52;100809.53;5069888;28;20123;-67
2022/09/23 09:28:59;;;;;;;6.40;3.65;;;;;;;18.63;53.96;100806.00;5088754;28;20771;-68
2022/09/23 09:31:30;;;;;;;3.92;3.53;;;;;;;18.67;54.11;100800.00;5088345;28;20028;-67
2022/09/23 09:34:15;;;;;;;5.22;3.95;;;;;;;18.60;53.96;100801.72;5088960;28;20048;-67
2022/09/23 09:36:48;;;;;;;4.18;3.58;;;;;;;18.57;54.25;100801.25;5088747;28;20028;-66
2022/09/23 09:39:15;;;;;;;5.95;4.00;;;;;;;18.64;53.50;100797.63;5071747;28;20024;-66
2022/09/23 09:41:48;;;;;;;5.85;3.60;;;;;;;18.73;53.41;100804.75;5068554;28;20045;-66
2022/09/23 09:44:57;;;;;;;4.40;3.97;;;;;;;18.68;53.08;100792.72;5050056;28;20021;-66
2022/09/23 09:47:47;;;;;;;4.18;3.78;;;;;;;18.63;54.55;100789.69;5047643;28;20040;-65
2022/09/23 09:50:32;;;;;;;4.85;4.25;;;;;;;18.66;54.52;100794.75;5067698;28;20032;-66
2022/09/23 09:53:15;;;;;;;4.40;3.72;;;;;;;18.56;54.95;100792.22;5085843;28;20040;-66
2022/09/23 09:55:40;;;;;;;4.60;3.67;;;;;;;18.66;54.55;100803.75;5065448;28;20392;-68
2022/09/23 09:58:12;;;;;;;5.32;4.70;;;;;;;18.68;53.89;100796.28;5067445;28;20036;-68
2022/09/23 10:00:45;;;;;;;4.45;3.90;;;;;;;18.68;53.75;100798.13;5067200;28;20029;-67
2022/09/23 10:03:13;;;;;;;4.75;4.18;;;;;;;18.69;54.18;100795.25;5067309;28;20100;-67
2022/09/23 10:05:44;;;;;;;5.38;3.97;;;;;;;18.77;53.86;100795.19;5049073;28;20553;-67
2022/09/23 10:08:33;;;;;;;6.60;4.10;;;;;;;18.75;53.78;100796.41;5067103;28;20035;-67
2022/09/23 10:11:03;;;;;;;4.45;3.90;;;;;;;18.72;54.09;100800.34;5067280;28;20563;-66
2022/09/23 10:13:30;;;;;;;9.05;4.22;;;;;;;18.73;53.72;100801.19;5061807;28;20498;-65
2022/09/23 10:15:57;;;;;;;4.78;4.07;;;;;;;18.71;53.13;100795.94;5088265;28;20102;-65
2022/09/23 10:18:50;;;;;;;6.13;4.35;;;;;;;18.74;53.21;100792.88;5087582;28;20030;-65
2022/09/23 10:21:20;;;;;;;3.95;3.55;;;;;;;18.74;52.73;100794.72;5068707;28;20040;-64
2022/09/23 10:23:51;;;;;;;5.05;3.97;;;;;;;18.71;53.01;100789.63;5087263;28;20035;-65
2022/09/23 10:26:27;;;;;;;6.80;4.45;;;;;;;18.70;53.51;100786.06;5067319;28;20497;-65
2022/09/23 10:28:58;;;;;;;4.82;3.95;;;;;;;18.70;53.16;100788.78;5087223;28;20074;-65
2022/09/23 10:31:24;;;;;;;5.60;3.83;;;;;;;18.73;53.77;100788.44;5075229;28;20109;-65
2022/09/23 10:34:01;;;;;;;4.38;3.30;;;;;;;18.77;53.48;100788.94;5080885;28;20071;-65
2022/09/23 10:36:31;;;;;;;3.80;3.28;;;;;;;18.84;52.59;100787.22;5068603;28;20036;-67
2022/09/23 10:48:08;;;;;;;4.07;3.42;;;;;;;18.96;51.35;100764.88;5067253;28;20175;-66
2022/09/23 10:50:43;;;;;;;3.78;3.33;;;;;;;18.95;51.06;100763.19;5048972;28;20112;-67
2022/09/23 10:53:22;;;;;;;3.22;2.90;;;;;;;19.12;51.50;100770.25;5065491;28;20055;-67
2022/09/23 10:56:14;;;;;;;3.75;3.35;;;;;;;19.21;51.31;100762.88;5069286;28;20039;-66
2022/09/23 10:58:40;;;;;;;3.85;3.30;;;;;;;19.30;49.73;100761.84;5077443;28;20051;-67
2022/09/23 11:01:31;;;;;;;5.18;3.70;;;;;;;19.30;50.11;100759.97;5086640;28;20031;-66
2022/09/23 11:04:00;;;;;;;6.05;2.80;;;;;;;19.35;50.82;100757.53;5066969;28;20027;-66
2022/09/23 11:06:58;;;;;;;4.43;3.20;;;;;;;19.33;49.73;100751.47;5049094;28;20028;-67
2022/09/23 11:09:50;;;;;;;5.80;3.55;;;;;;;19.27;49.36;100744.00;5086417;28;20031;-66
2022/09/23 11:12:24;;;;;;;5.13;3.67;;;;;;;19.19;49.91;100746.75;5068303;28;20671;-66
2022/09/23 11:14:56;;;;;;;8.18;3.95;;;;;;;19.10;50.46;100734.25;5086363;28;20081;-65
2022/09/23 11:17:21;;;;;;;3.50;3.20;;;;;;;19.09;50.51;100753.44;5086070;28;20040;-67
2022/09/23 11:20:08;;;;;;;4.28;3.20;;;;;;;19.02;50.40;100744.31;5076264;28;20122;-67
2022/09/23 11:22:52;;;;;;;3.53;3.08;;;;;;;19.01;50.44;100743.47;5068194;28;20024;-66
2022/09/23 11:25:40;;;;;;;5.20;3.60;;;;;;;19.19;48.78;100741.28;5067673;28;20040;-65
2022/09/23 11:28:24;;;;;;;5.90;3.10;;;;;;;19.13;48.69;100731.16;5087175;28;20058;-67
2022/09/23 11:31:05;;;;;;;3.15;2.83;;;;;;;19.11;49.04;100735.06;5086559;28;20838;-65
2022/09/23 11:34:04;;;;;;;3.58;2.70;;;;;;;19.13;47.71;100724.88;5082580;28;20198;-68
2022/09/23 11:36:41;;;;;;;3.67;3.00;;;;;;;19.11;46.85;100711.44;5077217;28;20431;-68
2022/09/23 11:39:18;;;;;;;3.55;2.83;;;;;;;19.08;47.46;100703.66;5086226;28;20077;-68
2022/09/23 11:41:46;;;;;;;4.40;3.05;;;;;;;19.28;47.57;100715.78;5082646;28;20547;-67
2022/09/23 11:44:19;;;;;;;3.33;2.75;;;;;;;19.31;47.63;100715.41;5083065;28;20071;-67
2022/09/23 11:46:55;;;;;;;3.90;2.92;;;;;;;19.25;47.88;100713.38;5075910;28;20024;-67
2022/09/23 11:49:31;;;;;;;4.22;2.60;;;;;;;19.21;48.41;100711.19;5065378;28;20032;-67